createdAt,value
2024-03-08T00:01:25.301Z,100.00
2024-03-08T00:04:22.403Z,100.00
2024-03-08T00:07:19.262Z,100.00
2024-03-08T00:10:16.482Z,100.00
2024-03-08T00:13:13.457Z,100.00
2024-03-08T00:16:10.700Z,100.00
2024-03-08T00:19:07.560Z,100.00
2024-03-08T00:22:04.406Z,100.00
2024-03-08T00:25:01.261Z,100.00
2024-03-08T00:27:58.302Z,100.00
2024-03-08T00:30:55.146Z,100.00
2024-03-08T00:33:53.746Z,100.00
2024-03-08T00:36:51.453Z,100.00
2024-03-08T00:39:49.025Z,100.00
2024-03-08T00:42:45.875Z,100.00
2024-03-08T00:45:43.764Z,100.00
2024-03-08T00:48:44.405Z,100.00
2024-03-08T00:51:41.269Z,100.00
2024-03-08T00:54:38.134Z,100.00
2024-03-08T00:57:35.005Z,100.00
2024-03-08T01:00:32.150Z,100.00
2024-03-08T01:03:29.119Z,100.00
2024-03-08T01:06:26.056Z,100.00
2024-03-08T01:09:24.250Z,100.00
2024-03-08T01:12:21.393Z,100.00
2024-03-08T01:15:18.456Z,100.00
2024-03-08T01:18:15.405Z,100.00
2024-03-08T01:21:12.371Z,100.00
2024-03-08T01:24:09.256Z,100.00
2024-03-08T01:27:06.240Z,100.00
2024-03-08T01:30:03.747Z,100.00
2024-03-08T01:33:01.597Z,100.00
2024-03-08T01:35:59.467Z,100.00
2024-03-08T01:38:56.415Z,100.00
2024-03-08T01:41:55.414Z,100.00
2024-03-08T01:44:52.710Z,100.00
2024-03-08T01:47:49.982Z,100.00
2024-03-08T01:50:47.387Z,100.00
2024-03-08T01:53:47.282Z,100.00
2024-03-08T01:56:44.400Z,100.00
2024-03-08T01:59:42.910Z,100.00
2024-03-08T02:02:45.431Z,100.00
2024-03-08T02:05:42.942Z,100.00
2024-03-08T02:08:39.939Z,100.00
2024-03-08T02:25:26.217Z,100.00
2024-03-08T02:28:23.896Z,100.00
2024-03-08T02:31:20.759Z,100.00
2024-03-08T02:34:17.634Z,100.00
2024-03-08T02:37:14.505Z,100.00
2024-03-08T02:40:13.659Z,100.00
2024-03-08T02:43:11.871Z,100.00
2024-03-08T02:46:08.769Z,100.00
2024-03-08T02:49:05.632Z,100.00
2024-03-08T02:52:02.807Z,100.00
2024-03-08T02:54:59.636Z,100.00
2024-03-08T02:57:57.248Z,100.00
2024-03-08T03:00:54.193Z,100.00
2024-03-08T03:03:51.048Z,100.00
2024-03-08T03:06:47.909Z,100.00
2024-03-08T03:09:44.832Z,100.00
2024-03-08T03:12:41.690Z,100.00
2024-03-08T03:15:38.632Z,100.00
2024-03-08T03:18:35.641Z,100.00
2024-03-08T03:21:33.062Z,100.00
2024-03-08T03:24:30.830Z,100.00
2024-03-08T03:27:27.747Z,100.00
2024-03-08T03:30:28.162Z,100.00
2024-03-08T03:33:25.114Z,100.00
2024-03-08T03:36:22.038Z,100.00
2024-03-08T03:39:21.180Z,100.00
2024-03-08T03:42:19.048Z,100.00
2024-03-08T03:45:20.938Z,100.00
2024-03-08T03:48:17.864Z,100.00
2024-03-08T03:51:16.747Z,100.00
2024-03-08T03:54:14.392Z,100.00
2024-03-08T03:57:11.401Z,100.00
2024-03-08T04:00:12.166Z,100.00
2024-03-08T04:03:09.909Z,100.00
2024-03-08T04:06:07.083Z,100.00
2024-03-08T04:09:04.225Z,100.00
2024-03-08T04:12:02.447Z,100.00
2024-03-08T04:14:59.635Z,100.00
2024-03-08T04:17:56.568Z,100.00
2024-03-08T04:20:53.541Z,100.00
2024-03-08T04:23:50.561Z,100.00
2024-03-08T04:26:48.690Z,100.00
2024-03-08T04:29:45.647Z,100.00
2024-03-08T04:32:43.837Z,100.00
2024-03-08T04:35:40.939Z,100.00
2024-03-08T04:38:37.958Z,100.00
2024-03-08T04:41:35.405Z,100.00
2024-03-08T04:44:32.798Z,100.00
2024-03-08T04:47:29.927Z,100.00
2024-03-08T04:50:29.762Z,100.00
2024-03-08T04:53:26.660Z,100.00
2024-03-08T04:56:23.621Z,100.00
2024-03-08T04:59:20.454Z,100.00
2024-03-08T05:02:18.482Z,100.00
2024-03-08T05:05:16.377Z,100.00
2024-03-08T05:08:13.302Z,100.00
2024-03-08T05:11:10.781Z,100.00
2024-03-08T05:14:07.783Z,100.00
2024-03-08T05:17:08.001Z,100.00
2024-03-08T05:20:08.506Z,100.00
2024-03-08T05:23:06.497Z,100.00
2024-03-08T05:26:03.392Z,100.00
2024-03-08T05:29:00.382Z,100.00
2024-03-08T05:31:58.951Z,100.00
2024-03-08T05:34:55.910Z,100.00
2024-03-08T05:37:52.794Z,100.00
2024-03-08T05:40:50.191Z,100.00
2024-03-08T05:43:47.140Z,100.00
2024-03-08T05:46:44.058Z,100.00
2024-03-08T05:49:40.944Z,100.00
2024-03-08T05:52:39.695Z,100.00
2024-03-08T05:55:36.562Z,100.00
2024-03-08T05:58:33.499Z,100.00
2024-03-08T06:01:31.705Z,100.00
2024-03-08T06:04:28.611Z,100.00
2024-03-08T06:07:25.566Z,100.00
2024-03-08T06:10:22.482Z,100.00
2024-03-08T06:13:19.357Z,100.00
2024-03-08T06:16:16.443Z,100.00
2024-03-08T06:19:13.877Z,100.00
2024-03-08T06:22:10.815Z,100.00
2024-03-08T06:25:15.035Z,100.00
2024-03-08T06:28:12.136Z,100.00
2024-03-08T06:31:09.280Z,100.00
2024-03-08T06:34:09.079Z,100.00
2024-03-08T06:37:06.188Z,100.00
2024-03-08T06:40:09.031Z,100.00
2024-03-08T06:43:06.975Z,100.00
2024-03-08T06:46:04.997Z,100.00
2024-03-08T06:49:01.951Z,100.00
2024-03-08T06:51:58.842Z,100.00
2024-03-08T06:54:55.740Z,100.00
2024-03-08T06:57:52.641Z,100.00
2024-03-08T07:00:53.190Z,100.00
2024-03-08T07:03:50.076Z,100.00
2024-03-08T07:06:46.934Z,100.00
2024-03-08T07:09:46.939Z,100.00
2024-03-08T07:12:43.798Z,100.00
2024-03-08T07:15:40.990Z,100.00
2024-03-08T07:18:41.151Z,100.00
2024-03-08T07:21:38.367Z,100.00
2024-03-08T07:24:36.869Z,100.00
2024-03-08T07:27:35.492Z,100.00
2024-03-08T07:30:47.190Z,100.00
2024-03-08T07:33:44.637Z,100.00
2024-03-08T07:36:41.654Z,100.00
2024-03-08T07:39:40.281Z,100.00
2024-03-08T07:42:38.428Z,100.00
2024-03-08T07:45:37.019Z,100.00
2024-03-08T07:48:34.190Z,100.00
2024-03-08T07:51:31.735Z,100.00
2024-03-08T07:54:28.682Z,100.00
2024-03-08T07:57:27.080Z,100.00
2024-03-08T08:00:25.374Z,100.00
2024-03-08T08:03:22.360Z,100.00
2024-03-08T08:06:19.388Z,100.00
2024-03-08T08:09:16.293Z,100.00
2024-03-08T08:12:13.295Z,100.00
2024-03-08T08:15:10.359Z,100.00
2024-03-08T08:18:08.107Z,100.00
2024-03-08T08:21:07.384Z,100.00
2024-03-08T08:24:05.213Z,100.00
2024-03-08T08:27:02.110Z,100.00
2024-03-08T08:29:59.002Z,100.00
2024-03-08T08:32:56.404Z,100.00
2024-03-08T08:35:55.012Z,100.00
2024-03-08T08:38:52.042Z,100.00
2024-03-08T08:41:48.898Z,100.00
2024-03-08T08:44:45.922Z,100.00
2024-03-08T08:47:43.944Z,100.00
2024-03-08T08:50:41.027Z,100.00
2024-03-08T08:53:40.059Z,85.17
2024-03-08T08:56:36.944Z,97.88
2024-03-08T08:59:33.789Z,87.29
2024-03-08T09:02:30.875Z,87.54
2024-03-08T09:05:27.888Z,82.79
2024-03-08T09:08:26.040Z,83.57
2024-03-08T09:11:23.003Z,78.54
2024-03-08T09:14:21.466Z,74.94
2024-03-08T09:17:21.691Z,79.73
2024-03-08T09:20:18.731Z,81.72
2024-03-08T09:23:17.926Z,80.07
2024-03-08T09:26:23.171Z,68.46
2024-03-08T09:29:25.663Z,76.94
2024-03-08T09:32:23.826Z,68.14
2024-03-08T09:35:21.189Z,69.04
2024-03-08T09:38:18.184Z,67.78
2024-03-08T09:41:15.054Z,70.11
2024-03-08T09:44:12.673Z,70.08
2024-03-08T09:47:12.168Z,61.65
2024-03-08T09:50:19.093Z,64.11
2024-03-08T09:53:17.820Z,63.37
2024-03-08T09:56:14.841Z,65.30
2024-03-08T09:59:26.601Z,60.10
2024-03-08T10:02:24.290Z,62.27
2024-03-08T10:05:23.110Z,60.17
2024-03-08T10:08:21.314Z,60.77
2024-03-08T10:11:18.866Z,61.68
2024-03-08T10:14:19.474Z,63.99
2024-03-08T10:17:16.765Z,58.90
2024-03-08T10:20:20.337Z,57.54
2024-03-08T10:23:19.035Z,57.77
2024-03-08T10:26:17.681Z,61.38
2024-03-08T10:29:16.872Z,58.54
2024-03-08T10:32:13.922Z,57.51
2024-03-08T10:35:13.065Z,54.40
2024-03-08T10:38:20.495Z,59.24
2024-03-08T10:41:18.602Z,58.51
2024-03-08T10:44:35.672Z,59.91
2024-03-08T10:47:36.919Z,62.83
2024-03-08T10:50:35.644Z,59.22
2024-03-08T10:53:34.983Z,55.28
2024-03-08T10:56:31.842Z,53.85
2024-03-08T10:59:30.343Z,56.88
2024-03-08T11:02:28.545Z,54.89
2024-03-08T11:05:44.631Z,53.12
2024-03-08T11:08:43.404Z,56.04
2024-03-08T11:11:41.725Z,56.25
2024-03-08T11:14:50.047Z,52.57
2024-03-08T11:17:49.885Z,52.50
2024-03-08T11:20:50.349Z,55.89
2024-03-08T11:24:08.894Z,51.06
2024-03-08T11:27:06.247Z,50.39
2024-03-08T11:30:18.868Z,48.65
2024-03-08T11:33:17.277Z,48.80
2024-03-08T11:36:23.070Z,53.14
2024-03-08T11:39:20.633Z,50.41
2024-03-08T11:42:20.829Z,50.98
2024-03-08T11:45:18.838Z,48.09
2024-03-08T11:48:16.278Z,44.21
2024-03-08T11:51:15.806Z,53.58
2024-03-08T11:54:17.091Z,47.52
2024-03-08T11:57:14.124Z,42.77
2024-03-08T12:00:24.955Z,44.09
2024-03-08T12:03:21.834Z,44.83
2024-03-08T12:06:19.315Z,47.40
2024-03-08T12:09:17.672Z,44.34
2024-03-08T12:12:14.726Z,45.67
2024-03-08T12:15:12.598Z,43.65
2024-03-08T12:18:11.736Z,44.17
2024-03-08T12:21:12.121Z,47.23
2024-03-08T12:24:10.673Z,48.85
2024-03-08T12:27:20.878Z,48.94
2024-03-08T12:30:24.708Z,45.38
2024-03-08T12:33:21.720Z,46.94
2024-03-08T12:36:20.999Z,45.60
2024-03-08T12:39:23.504Z,46.75
2024-03-08T12:42:20.382Z,45.48
2024-03-08T12:45:17.347Z,49.96
2024-03-08T12:48:16.409Z,46.02
2024-03-08T12:51:13.674Z,45.39
2024-03-08T12:54:10.633Z,44.82
2024-03-08T12:57:08.881Z,49.91
2024-03-08T13:00:06.616Z,48.25
2024-03-08T13:03:04.130Z,45.79
2024-03-08T13:06:01.206Z,45.74
2024-03-08T13:08:59.320Z,44.80
2024-03-08T13:11:56.341Z,49.38
2024-03-08T13:14:53.391Z,45.50
2024-03-08T13:17:51.190Z,47.63
2024-03-08T13:20:53.045Z,46.60
2024-03-08T13:23:50.638Z,47.19
2024-03-08T13:26:48.494Z,46.86
2024-03-08T13:29:45.339Z,48.11
2024-03-08T13:32:44.585Z,46.37
2024-03-08T13:35:42.511Z,46.98
2024-03-08T13:38:39.531Z,49.25
2024-03-08T13:41:36.439Z,48.07
2024-03-08T13:44:33.296Z,46.18
2024-03-08T13:47:31.544Z,47.10
2024-03-08T13:50:29.314Z,47.53
2024-03-08T13:53:26.719Z,47.94
2024-03-08T13:56:23.590Z,48.09
2024-03-08T13:59:23.579Z,46.13
2024-03-08T14:02:20.582Z,52.03
2024-03-08T14:05:19.020Z,47.90
2024-03-08T14:08:17.324Z,48.68
2024-03-08T14:11:14.666Z,48.12
2024-03-08T14:14:15.293Z,49.40
2024-03-08T14:17:17.964Z,47.75
2024-03-08T14:20:14.861Z,49.09
2024-03-08T14:23:13.889Z,49.85
2024-03-08T14:26:12.385Z,50.88
2024-03-08T14:29:11.083Z,54.73
2024-03-08T14:32:09.485Z,51.48
2024-03-08T14:35:07.058Z,52.28
2024-03-08T14:38:04.301Z,53.68
2024-03-08T14:41:02.331Z,53.19
2024-03-08T14:44:00.669Z,56.90
2024-03-08T14:46:58.003Z,56.24
2024-03-08T14:49:56.684Z,56.10
2024-03-08T14:52:54.068Z,59.60
2024-03-08T14:55:51.986Z,58.45
2024-03-08T14:58:52.774Z,62.17
2024-03-08T15:01:49.653Z,59.45
2024-03-08T15:04:58.767Z,61.34
2024-03-08T15:07:56.555Z,61.05
2024-03-08T15:10:56.814Z,60.90
2024-03-08T15:13:54.684Z,58.72
2024-03-08T15:16:52.263Z,59.78
2024-03-08T15:19:50.169Z,63.11
2024-03-08T15:22:50.189Z,65.96
2024-03-08T15:25:50.048Z,60.98
2024-03-08T15:28:48.760Z,59.49
2024-03-08T15:31:45.701Z,64.78
2024-03-08T15:34:43.900Z,66.22
2024-03-08T15:37:46.329Z,68.73
2024-03-08T15:40:43.298Z,70.63
2024-03-08T15:43:41.831Z,71.99
2024-03-08T15:46:40.803Z,68.21
2024-03-08T15:49:37.783Z,72.26
2024-03-08T15:52:34.816Z,71.15
2024-03-08T15:55:32.494Z,72.55
2024-03-08T15:58:31.150Z,71.06
2024-03-08T16:01:28.900Z,73.09
2024-03-08T16:04:26.299Z,74.31
2024-03-08T16:07:23.205Z,76.48
2024-03-08T16:10:20.607Z,76.08
2024-03-08T16:13:18.456Z,77.79
2024-03-08T16:16:15.360Z,79.96
2024-03-08T16:19:14.991Z,79.75
2024-03-08T16:22:11.860Z,78.36
2024-03-08T16:25:13.384Z,78.29
2024-03-08T16:28:12.017Z,81.74
2024-03-08T16:31:09.641Z,83.58
2024-03-08T16:34:06.630Z,82.94
2024-03-08T16:37:03.766Z,85.37
2024-03-08T16:40:01.620Z,84.90
2024-03-08T16:42:59.705Z,86.08
2024-03-08T16:45:57.435Z,88.01
2024-03-08T16:48:55.606Z,92.08
2024-03-08T16:51:52.559Z,90.46
2024-03-08T16:54:56.960Z,90.75
2024-03-08T16:57:58.279Z,95.13
2024-03-08T17:00:55.151Z,96.10
2024-03-08T17:03:59.925Z,100.00
2024-03-08T17:07:00.326Z,100.00
2024-03-08T17:09:58.842Z,100.00
2024-03-08T17:12:59.713Z,100.00
2024-03-08T17:15:56.828Z,100.00
2024-03-08T17:18:53.728Z,100.00
2024-03-08T17:21:50.576Z,100.00
2024-03-08T17:24:47.481Z,100.00
2024-03-08T17:27:46.890Z,100.00
2024-03-08T17:30:47.261Z,100.00
2024-03-08T17:33:44.204Z,100.00
2024-03-08T17:36:41.791Z,100.00
2024-03-08T17:39:39.480Z,100.00
2024-03-08T17:42:36.398Z,100.00
2024-03-08T17:45:34.166Z,100.00
2024-03-08T17:48:32.751Z,100.00
2024-03-08T17:51:31.254Z,100.00
2024-03-08T17:54:28.099Z,100.00
2024-03-08T17:57:26.385Z,100.00
2024-03-08T18:00:30.264Z,100.00
2024-03-08T18:03:29.109Z,100.00
2024-03-08T18:06:27.310Z,100.00
2024-03-08T18:09:24.550Z,100.00
2024-03-08T18:12:21.390Z,100.00
2024-03-08T18:15:21.497Z,100.00
2024-03-08T18:18:19.190Z,100.00
2024-03-08T18:21:16.863Z,100.00
2024-03-08T18:24:13.793Z,100.00
2024-03-08T18:27:10.641Z,100.00
2024-03-08T18:30:12.688Z,100.00
2024-03-08T18:33:13.201Z,100.00
2024-03-08T18:36:10.552Z,100.00
2024-03-08T18:39:11.539Z,100.00
2024-03-08T18:42:08.389Z,100.00
2024-03-08T18:45:11.818Z,100.00
2024-03-08T18:48:08.859Z,100.00
2024-03-08T18:51:06.618Z,100.00
2024-03-08T18:54:04.809Z,100.00
2024-03-08T18:57:06.099Z,100.00
2024-03-08T19:00:06.472Z,100.00
2024-03-08T19:03:06.469Z,100.00
2024-03-08T19:06:03.603Z,100.00
2024-03-08T19:09:00.735Z,100.00
2024-03-08T19:11:58.131Z,100.00
2024-03-08T19:14:55.058Z,100.00
2024-03-08T19:17:55.746Z,100.00
2024-03-08T19:20:53.087Z,100.00
2024-03-08T19:23:50.123Z,100.00
2024-03-08T19:26:49.818Z,100.00
2024-03-08T19:29:46.889Z,100.00
2024-03-08T19:32:45.483Z,100.00
2024-03-08T19:35:42.804Z,100.00
2024-03-08T19:38:41.476Z,100.00
2024-03-08T19:41:38.435Z,100.00
2024-03-08T19:44:35.535Z,100.00
2024-03-08T19:47:32.398Z,100.00
2024-03-08T19:50:31.374Z,100.00
2024-03-08T19:53:28.228Z,100.00
2024-03-08T19:56:25.147Z,100.00
2024-03-08T19:59:21.980Z,100.00
2024-03-08T20:02:19.148Z,100.00
2024-03-08T20:05:18.841Z,100.00
2024-03-08T20:08:15.860Z,100.00
2024-03-08T20:11:13.075Z,100.00
2024-03-08T20:14:11.665Z,100.00
2024-03-08T20:17:10.165Z,100.00
2024-03-08T20:20:15.490Z,100.00
2024-03-08T20:23:14.120Z,100.00
2024-03-08T20:26:12.581Z,100.00
2024-03-08T20:29:09.861Z,100.00
2024-03-08T20:32:06.913Z,100.00
2024-03-08T20:35:05.045Z,100.00
2024-03-08T20:38:21.097Z,100.00
2024-03-08T20:41:18.037Z,100.00
2024-03-08T20:44:16.755Z,100.00
2024-03-08T20:47:13.732Z,100.00
2024-03-08T20:50:14.618Z,100.00
2024-03-08T20:53:15.600Z,100.00
2024-03-08T20:56:12.792Z,100.00
2024-03-08T20:59:11.364Z,100.00
2024-03-08T21:02:10.145Z,100.00
2024-03-08T21:05:07.996Z,100.00
2024-03-08T21:08:06.371Z,100.00
2024-03-08T21:11:03.543Z,100.00
2024-03-08T21:14:01.300Z,100.00
2024-03-08T21:16:59.109Z,100.00
2024-03-08T21:19:57.662Z,100.00
2024-03-08T21:22:54.610Z,100.00
2024-03-08T21:25:51.693Z,100.00
2024-03-08T21:28:48.730Z,100.00
2024-03-08T21:31:45.680Z,100.00
2024-03-08T21:34:43.110Z,100.00
2024-03-08T21:37:40.391Z,100.00
2024-03-08T21:40:48.570Z,100.00
2024-03-08T21:43:54.241Z,100.00
2024-03-08T21:46:51.188Z,100.00
2024-03-08T21:49:51.881Z,100.00
2024-03-08T21:52:50.192Z,100.00
2024-03-08T21:55:48.802Z,100.00
2024-03-08T21:58:46.049Z,100.00
2024-03-08T22:01:44.568Z,100.00
2024-03-08T22:04:41.524Z,100.00
2024-03-08T22:07:38.811Z,100.00
2024-03-08T22:10:35.706Z,100.00
2024-03-08T22:13:32.767Z,100.00
2024-03-08T22:16:33.947Z,100.00
2024-03-08T22:19:30.917Z,100.00
2024-03-08T22:22:27.777Z,100.00
2024-03-08T22:25:24.814Z,100.00
2024-03-08T22:28:26.994Z,100.00
2024-03-08T22:31:25.703Z,100.00
2024-03-08T22:34:22.632Z,100.00
2024-03-08T22:37:21.062Z,100.00
2024-03-08T22:40:18.275Z,100.00
2024-03-08T22:43:17.679Z,100.00
2024-03-08T22:46:14.955Z,100.00
2024-03-08T22:49:12.793Z,100.00
2024-03-08T22:52:09.728Z,100.00
2024-03-08T22:55:09.546Z,100.00
2024-03-08T22:58:06.433Z,100.00
2024-03-08T23:01:04.681Z,100.00
2024-03-08T23:04:02.017Z,100.00
2024-03-08T23:06:59.311Z,100.00
2024-03-08T23:09:56.561Z,100.00
2024-03-08T23:12:54.101Z,100.00
2024-03-08T23:15:52.397Z,100.00
2024-03-08T23:18:50.350Z,100.00
2024-03-08T23:21:47.432Z,100.00
2024-03-08T23:24:44.649Z,100.00
2024-03-08T23:27:41.511Z,100.00
2024-03-08T23:30:42.527Z,100.00
2024-03-08T23:33:39.647Z,100.00
2024-03-08T23:36:36.541Z,100.00
2024-03-08T23:39:33.399Z,100.00
2024-03-08T23:42:30.251Z,100.00
2024-03-08T23:45:29.051Z,100.00
2024-03-08T23:48:27.299Z,100.00
2024-03-08T23:51:25.791Z,100.00
2024-03-08T23:54:23.587Z,100.00
2024-03-08T23:57:20.839Z,100.00
